sensor_id;sensor_type;location;lat;lon;timestamp;pressure;altitude;pressure_sealevel;temperature;humidity
39769;BME280;38939;47.824;14.642;2023-12-28T00:00:42;97208.56;;;4.45;74.62
39769;BME280;38939;47.824;14.642;2023-12-28T00:01:45;97211.56;;;4.40;75.09
39769;BME280;38939;47.824;14.642;2023-12-28T00:02:47;97209.31;;;4.37;75.34
39769;BME280;38939;47.824;14.642;2023-12-28T00:03:49;97207.38;;;4.39;75.25
39769;BME280;38939;47.824;14.642;2023-12-28T00:04:51;97207.38;;;4.39;75.56
39769;BME280;38939;47.824;14.642;2023-12-28T00:05:53;97210.78;;;4.39;75.46
39769;BME280;38939;47.824;14.642;2023-12-28T00:06:55;97203.03;;;4.39;75.18
39769;BME280;38939;47.824;14.642;2023-12-28T00:07:57;97203.03;;;4.39;75.24
39769;BME280;38939;47.824;14.642;2023-12-28T00:09:00;97207.91;;;4.43;75.30
39769;BME280;38939;47.824;14.642;2023-12-28T00:10:12;97210.97;;;4.46;75.02
39769;BME280;38939;47.824;14.642;2023-12-28T00:11:14;97206.78;;;4.45;74.58
39769;BME280;38939;47.824;14.642;2023-12-28T00:12:15;97211.59;;;4.48;74.62
39769;BME280;38939;47.824;14.642;2023-12-28T00:13:17;97205.13;;;4.44;74.76
39769;BME280;38939;47.824;14.642;2023-12-28T00:14:19;97208.69;;;4.43;74.94
39769;BME280;38939;47.824;14.642;2023-12-28T00:15:22;97204.66;;;4.40;75.34
39769;BME280;38939;47.824;14.642;2023-12-28T00:16:24;97216.09;;;4.38;75.10
39769;BME280;38939;47.824;14.642;2023-12-28T00:17:26;97209.00;;;4.40;75.30
39769;BME280;38939;47.824;14.642;2023-12-28T00:18:28;97215.94;;;4.39;74.99
39769;BME280;38939;47.824;14.642;2023-12-28T00:19:30;97211.75;;;4.38;75.55
39769;BME280;38939;47.824;14.642;2023-12-28T00:20:32;97210.13;;;4.37;75.46
39769;BME280;38939;47.824;14.642;2023-12-28T00:21:34;97206.09;;;4.35;75.18
39769;BME280;38939;47.824;14.642;2023-12-28T00:22:36;97199.78;;;4.37;75.11
39769;BME280;38939;47.824;14.642;2023-12-28T00:23:40;97216.09;;;4.38;74.95
39769;BME280;38939;47.824;14.642;2023-12-28T00:24:42;97204.81;;;4.39;74.97
39769;BME280;38939;47.824;14.642;2023-12-28T00:25:44;97205.75;;;4.38;74.68
39769;BME280;38939;47.824;14.642;2023-12-28T00:26:46;97217.72;;;4.39;75.13
39769;BME280;38939;47.824;14.642;2023-12-28T00:27:48;97210.78;;;4.39;75.13
39769;BME280;38939;47.824;14.642;2023-12-28T00:28:50;97217.06;;;4.37;75.40
39769;BME280;38939;47.824;14.642;2023-12-28T00:29:53;97216.25;;;4.36;75.04
39769;BME280;38939;47.824;14.642;2023-12-28T00:30:54;97214.63;;;4.35;75.33
39769;BME280;38939;47.824;14.642;2023-12-28T00:31:56;97219.47;;;4.30;75.48
39769;BME280;38939;47.824;14.642;2023-12-28T00:32:58;97210.22;;;4.28;75.21
39769;BME280;38939;47.824;14.642;2023-12-28T00:34:00;97208.63;;;4.27;75.28
39769;BME280;38939;47.824;14.642;2023-12-28T00:35:02;97211.88;;;4.29;75.15
39769;BME280;38939;47.824;14.642;2023-12-28T00:36:07;97213.47;;;4.30;75.28
39769;BME280;38939;47.824;14.642;2023-12-28T00:37:09;97216.06;;;4.30;74.92
39769;BME280;38939;47.824;14.642;2023-12-28T00:38:11;97217.22;;;4.35;74.68
39769;BME280;38939;47.824;14.642;2023-12-28T00:39:12;97217.22;;;4.35;74.54
39769;BME280;38939;47.824;14.642;2023-12-28T00:40:15;97214.78;;;4.34;74.86
39769;BME280;38939;47.824;14.642;2023-12-28T00:41:17;97211.09;;;4.36;74.66
39769;BME280;38939;47.824;14.642;2023-12-28T00:42:18;97217.22;;;4.35;74.98
39769;BME280;38939;47.824;14.642;2023-12-28T00:43:21;97215.91;;;4.31;74.78
39769;BME280;38939;47.824;14.642;2023-12-28T00:44:23;97219.91;;;4.26;74.98
39769;BME280;38939;47.824;14.642;2023-12-28T00:45:25;97219.88;;;4.17;75.44
39769;BME280;38939;47.824;14.642;2023-12-28T00:46:26;97216.63;;;4.15;75.69
39769;BME280;38939;47.824;14.642;2023-12-28T00:47:28;97207.94;;;4.16;75.53
39769;BME280;38939;47.824;14.642;2023-12-28T00:48:30;97213.75;;;4.18;75.48
39769;BME280;38939;47.824;14.642;2023-12-28T00:49:32;97212.78;;;4.19;75.32
39769;BME280;38939;47.824;14.642;2023-12-28T00:50:34;97210.19;;;4.19;75.11
39769;BME280;38939;47.824;14.642;2023-12-28T00:51:36;97217.78;;;4.21;75.52
39769;BME280;38939;47.824;14.642;2023-12-28T00:52:38;97214.22;;;4.22;75.19
39769;BME280;38939;47.824;14.642;2023-12-28T00:53:40;97210.56;;;4.25;75.23
39769;BME280;38939;47.824;14.642;2023-12-28T00:54:42;97200.22;;;4.25;75.08
39769;BME280;38939;47.824;14.642;2023-12-28T00:55:43;97212.16;;;4.26;74.96
39769;BME280;38939;47.824;14.642;2023-12-28T00:56:45;97205.22;;;4.26;74.99
39769;BME280;38939;47.824;14.642;2023-12-28T00:57:47;97208.94;;;4.24;74.88
39769;BME280;38939;47.824;14.642;2023-12-28T00:58:49;97216.00;;;4.21;75.26
39769;BME280;38939;47.824;14.642;2023-12-28T00:59:51;97213.56;;;4.20;74.98
39769;BME280;38939;47.824;14.642;2023-12-28T01:00:53;97216.34;;;4.18;74.84
39769;BME280;38939;47.824;14.642;2023-12-28T01:01:57;97217.13;;;4.19;75.09
39769;BME280;38939;47.824;14.642;2023-12-28T01:02:59;97214.56;;;4.19;74.81
39769;BME280;38939;47.824;14.642;2023-12-28T01:04:01;97213.38;;;4.13;74.85
39769;BME280;38939;47.824;14.642;2023-12-28T01:05:03;97209.88;;;4.14;75.22
39769;BME280;38939;47.824;14.642;2023-12-28T01:06:05;97209.50;;;4.09;75.11
39769;BME280;38939;47.824;14.642;2023-12-28T01:07:08;97211.44;;;4.07;75.59
39769;BME280;38939;47.824;14.642;2023-12-28T01:08:10;97211.75;;;4.04;75.71
39769;BME280;38939;47.824;14.642;2023-12-28T01:09:12;97211.75;;;4.04;75.90
39769;BME280;38939;47.824;14.642;2023-12-28T01:10:14;97204.00;;;4.04;75.99
39769;BME280;38939;47.824;14.642;2023-12-28T01:11:16;97215.94;;;4.05;76.09
39769;BME280;38939;47.824;14.642;2023-12-28T01:12:18;97221.75;;;4.07;75.97
39769;BME280;38939;47.824;14.642;2023-12-28T01:13:20;97215.94;;;4.05;75.80
39769;BME280;38939;47.824;14.642;2023-12-28T01:14:22;97219.16;;;4.07;75.57
39769;BME280;38939;47.824;14.642;2023-12-28T01:15:24;97220.81;;;4.08;75.91
39769;BME280;38939;47.824;14.642;2023-12-28T01:16:26;97220.81;;;4.08;75.61
39769;BME280;38939;47.824;14.642;2023-12-28T01:17:28;97218.88;;;4.10;75.56
39769;BME280;38939;47.824;14.642;2023-12-28T01:18:30;97226.16;;;4.15;75.12
39769;BME280;38939;47.824;14.642;2023-12-28T01:19:32;97226.97;;;4.15;75.22
39769;BME280;38939;47.824;14.642;2023-12-28T01:20:34;97225.03;;;4.17;75.50
39769;BME280;38939;47.824;14.642;2023-12-28T01:21:36;97231.84;;;4.18;75.22
39769;BME280;38939;47.824;14.642;2023-12-28T01:22:38;97237.94;;;4.17;74.78
39769;BME280;38939;47.824;14.642;2023-12-28T01:23:40;97229.41;;;4.17;75.01
39769;BME280;38939;47.824;14.642;2023-12-28T01:24:42;97227.94;;;4.14;74.79
39769;BME280;38939;47.824;14.642;2023-12-28T01:25:47;97234.06;;;4.13;75.39
39769;BME280;38939;47.824;14.642;2023-12-28T01:26:49;97242.13;;;4.10;75.14
39769;BME280;38939;47.824;14.642;2023-12-28T01:27:51;97231.28;;;4.07;75.50
39769;BME280;38939;47.824;14.642;2023-12-28T01:28:53;97233.53;;;4.10;75.69
39769;BME280;38939;47.824;14.642;2023-12-28T01:29:55;97227.44;;;4.11;75.29
39769;BME280;38939;47.824;14.642;2023-12-28T01:30:57;97229.50;;;4.07;75.11
39769;BME280;38939;47.824;14.642;2023-12-28T01:31:59;97233.72;;;4.08;75.34
39769;BME280;38939;47.824;14.642;2023-12-28T01:33:00;97232.72;;;4.09;74.92
39769;BME280;38939;47.824;14.642;2023-12-28T01:34:02;97228.22;;;4.11;75.25
39769;BME280;38939;47.824;14.642;2023-12-28T01:35:04;97234.38;;;4.10;74.91
39769;BME280;38939;47.824;14.642;2023-12-28T01:36:19;97230.47;;;4.06;74.90
39769;BME280;38939;47.824;14.642;2023-12-28T01:37:21;97230.75;;;4.03;75.23
39769;BME280;38939;47.824;14.642;2023-12-28T01:38:23;97228.19;;;4.03;75.52
39769;BME280;38939;47.824;14.642;2023-12-28T01:39:25;97235.78;;;4.05;75.32
39769;BME280;38939;47.824;14.642;2023-12-28T01:40:27;97234.16;;;4.04;75.21
39769;BME280;38939;47.824;14.642;2023-12-28T01:41:29;97235.78;;;4.05;75.01
39769;BME280;38939;47.824;14.642;2023-12-28T01:42:34;97239.03;;;4.07;75.16
39769;BME280;38939;47.824;14.642;2023-12-28T01:43:37;97226.25;;;4.05;75.12
39769;BME280;38939;47.824;14.642;2023-12-28T01:44:38;97234.38;;;4.10;75.15
39769;BME280;38939;47.824;14.642;2023-12-28T01:45:40;97235.97;;;4.11;74.62
39769;BME280;38939;47.824;14.642;2023-12-28T01:46:42;97238.69;;;4.10;74.48
39769;BME280;38939;47.824;14.642;2023-12-28T01:47:44;97239.69;;;4.09;74.78
39769;BME280;38939;47.824;14.642;2023-12-28T01:48:47;97242.13;;;4.10;74.39
39769;BME280;38939;47.824;14.642;2023-12-28T01:49:50;97247.28;;;4.10;74.39
39769;BME280;38939;47.824;14.642;2023-12-28T01:50:53;97242.25;;;4.09;74.67
39769;BME280;38939;47.824;14.642;2023-12-28T01:51:55;97232.72;;;4.09;74.69
39769;BME280;38939;47.824;14.642;2023-12-28T01:52:57;97237.25;;;4.07;74.72
39769;BME280;38939;47.824;14.642;2023-12-28T01:54:00;97233.66;;;4.00;75.26
39769;BME280;38939;47.824;14.642;2023-12-28T01:55:02;97235.41;;;3.99;75.02
39769;BME280;38939;47.824;14.642;2023-12-28T01:56:04;97234.75;;;3.97;75.34
39769;BME280;38939;47.824;14.642;2023-12-28T01:57:06;97239.13;;;3.97;75.28
39769;BME280;38939;47.824;14.642;2023-12-28T01:58:08;97236.69;;;3.95;75.42
39769;BME280;38939;47.824;14.642;2023-12-28T01:59:10;97237.19;;;3.99;75.05
39769;BME280;38939;47.824;14.642;2023-12-28T02:00:12;97245.59;;;4.01;75.10
39769;BME280;38939;47.824;14.642;2023-12-28T02:01:14;97243.81;;;4.01;75.22
39769;BME280;38939;47.824;14.642;2023-12-28T02:02:16;97242.06;;;4.02;74.88
39769;BME280;38939;47.824;14.642;2023-12-28T02:03:18;97245.44;;;4.03;75.21
39769;BME280;38939;47.824;14.642;2023-12-28T02:04:20;97250.47;;;4.04;75.61
39769;BME280;38939;47.824;14.642;2023-12-28T02:05:29;97248.03;;;4.03;74.90
39769;BME280;38939;47.824;14.642;2023-12-28T02:06:31;97248.50;;;3.98;75.04
39769;BME280;38939;47.824;14.642;2023-12-28T02:07:33;97244.44;;;3.95;75.05
39769;BME280;38939;47.824;14.642;2023-12-28T02:08:38;97249.16;;;4.00;75.41
39769;BME280;38939;47.824;14.642;2023-12-28T02:09:39;97248.03;;;4.03;75.53
39769;BME280;38939;47.824;14.642;2023-12-28T02:10:41;97244.66;;;4.02;75.56
39769;BME280;38939;47.824;14.642;2023-12-28T02:11:43;97251.56;;;4.01;75.24
39769;BME280;38939;47.824;14.642;2023-12-28T02:12:45;97245.09;;;3.97;74.88
39769;BME280;38939;47.824;14.642;2023-12-28T02:13:48;97249.44;;;3.97;75.04
39769;BME280;38939;47.824;14.642;2023-12-28T02:14:50;97252.69;;;3.99;75.36
39769;BME280;38939;47.824;14.642;2023-12-28T02:15:54;97253.66;;;3.98;75.59
39769;BME280;38939;47.824;14.642;2023-12-28T02:17:13;97251.66;;;3.92;75.81
39769;BME280;38939;47.824;14.642;2023-12-28T02:18:19;97251.38;;;3.95;75.97
39769;BME280;38939;47.824;14.642;2023-12-28T02:19:37;97255.25;;;3.99;76.10
39769;BME280;38939;47.824;14.642;2023-12-28T02:20:40;97253.56;;;3.90;75.53
39769;BME280;38939;47.824;14.642;2023-12-28T02:21:43;97250.34;;;3.88;75.50
39769;BME280;38939;47.824;14.642;2023-12-28T02:22:48;97249.19;;;3.82;75.88
39769;BME280;38939;47.824;14.642;2023-12-28T02:23:50;97248.53;;;3.80;75.70
39769;BME280;38939;47.824;14.642;2023-12-28T02:25:56;97249.63;;;3.77;76.51
39769;BME280;38939;47.824;14.642;2023-12-28T02:26:58;97252.19;;;3.77;76.58
39769;BME280;38939;47.824;14.642;2023-12-28T02:28:00;97250.94;;;3.81;76.32
39769;BME280;38939;47.824;14.642;2023-12-28T02:29:03;97250.00;;;3.83;76.57
39769;BME280;38939;47.824;14.642;2023-12-28T02:30:05;97249.34;;;3.80;76.33
39769;BME280;38939;47.824;14.642;2023-12-28T02:31:08;97255.16;;;3.83;75.78
39769;BME280;38939;47.824;14.642;2023-12-28T02:32:13;97258.41;;;3.85;75.63
39769;BME280;38939;47.824;14.642;2023-12-28T02:34:29;97258.25;;;3.86;75.99
39769;BME280;38939;47.824;14.642;2023-12-28T02:35:57;97253.56;;;3.90;76.21
39769;BME280;38939;47.824;14.642;2023-12-28T02:36:59;97255.97;;;3.83;75.93
39769;BME280;38939;47.824;14.642;2023-12-28T02:38:04;97263.19;;;3.79;76.05
39769;BME280;38939;47.824;14.642;2023-12-28T02:39:07;97257.22;;;3.79;76.12
39769;BME280;38939;47.824;14.642;2023-12-28T02:40:09;97258.34;;;3.76;75.87
39769;BME280;38939;47.824;14.642;2023-12-28T02:41:12;97253.84;;;3.78;76.26
39769;BME280;38939;47.824;14.642;2023-12-28T02:42:14;97259.47;;;3.74;76.08
39769;BME280;38939;47.824;14.642;2023-12-28T02:43:16;97266.88;;;3.77;76.01
39769;BME280;38939;47.824;14.642;2023-12-28T02:44:18;97270.94;;;3.79;76.03
39769;BME280;38939;47.824;14.642;2023-12-28T02:45:20;97265.75;;;3.79;76.18
39769;BME280;38939;47.824;14.642;2023-12-28T02:46:22;97270.78;;;3.81;76.23
39769;BME280;38939;47.824;14.642;2023-12-28T02:47:24;97266.41;;;3.81;76.18
39769;BME280;38939;47.824;14.642;2023-12-28T02:48:26;97273.38;;;3.81;75.77
39769;BME280;38939;47.824;14.642;2023-12-28T02:49:28;97276.75;;;3.81;75.28
39769;BME280;38939;47.824;14.642;2023-12-28T02:50:30;97269.31;;;3.78;75.63
39769;BME280;38939;47.824;14.642;2023-12-28T02:51:32;97271.91;;;3.78;76.11
39769;BME280;38939;47.824;14.642;2023-12-28T02:52:34;97282.22;;;3.78;75.84
39769;BME280;38939;47.824;14.642;2023-12-28T02:53:36;97278.00;;;3.77;76.07
39769;BME280;38939;47.824;14.642;2023-12-28T02:54:38;97284.16;;;3.76;76.15
39769;BME280;38939;47.824;14.642;2023-12-28T02:55:40;97279.28;;;3.73;76.34
39769;BME280;38939;47.824;14.642;2023-12-28T02:56:41;97273.03;;;3.76;76.41
39769;BME280;38939;47.824;14.642;2023-12-28T02:57:44;97278.31;;;3.74;76.02
39769;BME280;38939;47.824;14.642;2023-12-28T02:58:46;97282.63;;;3.66;76.37
39769;BME280;38939;47.824;14.642;2023-12-28T02:59:47;97281.13;;;3.63;76.79
39769;BME280;38939;47.824;14.642;2023-12-28T03:00:49;97280.09;;;3.56;77.19
39769;BME280;38939;47.824;14.642;2023-12-28T03:01:51;97287.19;;;3.54;76.96
39769;BME280;38939;47.824;14.642;2023-12-28T03:02:53;97287.31;;;3.52;77.04
39769;BME280;38939;47.824;14.642;2023-12-28T03:03:55;97294.09;;;3.53;77.12
39769;BME280;38939;47.824;14.642;2023-12-28T03:04:57;97293.00;;;3.56;76.89
39769;BME280;38939;47.824;14.642;2023-12-28T03:05:59;97299.25;;;3.53;77.07
39769;BME280;38939;47.824;14.642;2023-12-28T03:07:00;97291.38;;;3.55;76.85
39769;BME280;38939;47.824;14.642;2023-12-28T03:08:03;97296.53;;;3.55;76.91
39769;BME280;38939;47.824;14.642;2023-12-28T03:09:05;97294.63;;;3.57;76.37
39769;BME280;38939;47.824;14.642;2023-12-28T03:10:07;97302.06;;;3.60;76.34
39769;BME280;38939;47.824;14.642;2023-12-28T03:11:11;97299.50;;;3.60;76.60
39769;BME280;38939;47.824;14.642;2023-12-28T03:12:13;97295.28;;;3.59;76.87
39769;BME280;38939;47.824;14.642;2023-12-28T03:13:18;97295.00;;;3.62;76.38
39769;BME280;38939;47.824;14.642;2023-12-28T03:14:20;97295.34;;;3.67;76.67
39769;BME280;38939;47.824;14.642;2023-12-28T03:15:22;97294.09;;;3.71;77.01
39769;BME280;38939;47.824;14.642;2023-12-28T03:16:25;97297.34;;;3.73;76.43
39769;BME280;38939;47.824;14.642;2023-12-28T03:17:26;97294.41;;;3.68;76.04
39769;BME280;38939;47.824;14.642;2023-12-28T03:18:30;97298.44;;;3.53;76.63
39769;BME280;38939;47.824;14.642;2023-12-28T03:19:32;97300.00;;;3.46;76.59
39769;BME280;38939;47.824;14.642;2023-12-28T03:20:34;97302.88;;;3.43;76.84
39769;BME280;38939;47.824;14.642;2023-12-28T03:21:39;97302.72;;;3.44;76.78
39769;BME280;38939;47.824;14.642;2023-12-28T03:22:42;97307.75;;;3.46;76.82
39769;BME280;38939;47.824;14.642;2023-12-28T03:23:43;97312.59;;;3.49;77.10
39769;BME280;38939;47.824;14.642;2023-12-28T03:24:46;97301.34;;;3.50;77.20
39769;BME280;38939;47.824;14.642;2023-12-28T03:25:48;97302.59;;;3.46;77.33
39769;BME280;38939;47.824;14.642;2023-12-28T03:26:50;97304.78;;;3.40;77.05
39769;BME280;38939;47.824;14.642;2023-12-28T03:27:52;97308.91;;;3.33;77.48
39769;BME280;38939;47.824;14.642;2023-12-28T03:28:56;97302.50;;;3.37;77.97
39769;BME280;38939;47.824;14.642;2023-12-28T03:29:58;97304.44;;;3.35;78.24
39769;BME280;38939;47.824;14.642;2023-12-28T03:31:04;97302.94;;;3.33;77.75
39769;BME280;38939;47.824;14.642;2023-12-28T03:32:06;97302.44;;;3.29;77.53
39769;BME280;38939;47.824;14.642;2023-12-28T03:33:07;97303.25;;;3.30;77.62
39769;BME280;38939;47.824;14.642;2023-12-28T03:34:10;97306.91;;;3.27;77.81
39769;BME280;38939;47.824;14.642;2023-12-28T03:35:12;97305.16;;;3.28;78.22
39769;BME280;38939;47.824;14.642;2023-12-28T03:36:17;97307.00;;;3.35;77.90
39769;BME280;38939;47.824;14.642;2023-12-28T03:37:19;97302.88;;;3.43;78.19
39769;BME280;38939;47.824;14.642;2023-12-28T03:38:21;97308.56;;;3.46;78.14
39769;BME280;38939;47.824;14.642;2023-12-28T03:39:23;97308.09;;;3.51;77.74
39769;BME280;38939;47.824;14.642;2023-12-28T03:40:25;97310.03;;;3.49;77.42
39769;BME280;38939;47.824;14.642;2023-12-28T03:41:27;97302.13;;;3.50;77.61
39769;BME280;38939;47.824;14.642;2023-12-28T03:42:28;97311.34;;;3.53;77.50
39769;BME280;38939;47.824;14.642;2023-12-28T03:43:30;97312.81;;;3.55;77.87
39769;BME280;38939;47.824;14.642;2023-12-28T03:44:32;97312.00;;;3.55;77.40
39769;BME280;38939;47.824;14.642;2023-12-28T03:45:34;97311.88;;;3.56;77.36
39769;BME280;38939;47.824;14.642;2023-12-28T03:46:36;97307.09;;;3.44;77.47
39769;BME280;38939;47.824;14.642;2023-12-28T03:47:38;97309.41;;;3.37;77.65
39769;BME280;38939;47.824;14.642;2023-12-28T03:48:40;97304.72;;;3.32;77.60
39769;BME280;38939;47.824;14.642;2023-12-28T03:49:42;97315.03;;;3.32;77.57
39769;BME280;38939;47.824;14.642;2023-12-28T03:50:45;97324.94;;;3.27;77.89
39769;BME280;38939;47.824;14.642;2023-12-28T03:51:48;97319.28;;;3.24;78.11
39769;BME280;38939;47.824;14.642;2023-12-28T03:52:50;97326.59;;;3.28;77.98
39769;BME280;38939;47.824;14.642;2023-12-28T03:53:52;97321.81;;;3.33;78.02
39769;BME280;38939;47.824;14.642;2023-12-28T03:54:54;97311.63;;;3.32;78.00
39769;BME280;38939;47.824;14.642;2023-12-28T03:55:56;97331.47;;;3.31;78.16
39769;BME280;38939;47.824;14.642;2023-12-28T03:56:58;97331.16;;;3.34;77.97
39769;BME280;38939;47.824;14.642;2023-12-28T03:58:00;97323.28;;;3.36;77.40
39769;BME280;38939;47.824;14.642;2023-12-28T03:59:02;97318.56;;;3.31;77.72
39769;BME280;38939;47.824;14.642;2023-12-28T04:00:04;97314.34;;;3.30;77.73
39769;BME280;38939;47.824;14.642;2023-12-28T04:01:06;97323.06;;;3.29;77.91
39769;BME280;38939;47.824;14.642;2023-12-28T04:02:08;97321.44;;;3.28;77.79
39769;BME280;38939;47.824;14.642;2023-12-28T04:03:10;97324.66;;;3.30;78.20
39769;BME280;38939;47.824;14.642;2023-12-28T04:04:12;97330.50;;;3.32;77.99
39769;BME280;38939;47.824;14.642;2023-12-28T04:05:14;97326.81;;;3.35;77.30
39769;BME280;38939;47.824;14.642;2023-12-28T04:06:16;97334.41;;;3.36;77.36
39769;BME280;38939;47.824;14.642;2023-12-28T04:07:18;97340.22;;;3.38;77.65
39769;BME280;38939;47.824;14.642;2023-12-28T04:08:20;97325.72;;;3.37;76.88
39769;BME280;38939;47.824;14.642;2023-12-28T04:09:22;97331.56;;;3.39;77.25
39769;BME280;38939;47.824;14.642;2023-12-28T04:10:31;97331.38;;;3.41;77.35
39769;BME280;38939;47.824;14.642;2023-12-28T04:11:33;97330.97;;;3.46;76.32
39769;BME280;38939;47.824;14.642;2023-12-28T04:12:35;97324.03;;;3.46;76.61
39769;BME280;38939;47.824;14.642;2023-12-28T04:13:38;97333.22;;;3.49;76.34
39769;BME280;38939;47.824;14.642;2023-12-28T04:14:40;97330.53;;;3.50;76.79
39769;BME280;38939;47.824;14.642;2023-12-28T04:15:42;97329.41;;;3.53;76.37
39769;BME280;38939;47.824;14.642;2023-12-28T04:16:47;97327.63;;;3.53;76.27
39769;BME280;38939;47.824;14.642;2023-12-28T04:17:49;97333.31;;;3.57;76.46
39769;BME280;38939;47.824;14.642;2023-12-28T04:18:50;97330.06;;;3.55;76.33
39769;BME280;38939;47.824;14.642;2023-12-28T04:19:52;97332.78;;;3.53;75.83
39769;BME280;38939;47.824;14.642;2023-12-28T04:20:55;97335.28;;;3.45;75.94
39769;BME280;38939;47.824;14.642;2023-12-28T04:21:57;97334.78;;;3.42;76.43
39769;BME280;38939;47.824;14.642;2023-12-28T04:22:59;97328.66;;;3.43;76.95
39769;BME280;38939;47.824;14.642;2023-12-28T04:24:01;97335.47;;;3.44;76.21
39769;BME280;38939;47.824;14.642;2023-12-28T04:25:03;97331.78;;;3.46;76.47
39769;BME280;38939;47.824;14.642;2023-12-28T04:26:05;97334.03;;;3.49;76.57
39769;BME280;38939;47.824;14.642;2023-12-28T04:27:07;97332.13;;;3.51;76.56
39769;BME280;38939;47.824;14.642;2023-12-28T04:28:09;97331.03;;;3.54;76.53
39769;BME280;38939;47.824;14.642;2023-12-28T04:29:10;97332.66;;;3.55;76.93
39769;BME280;38939;47.824;14.642;2023-12-28T04:30:12;97333.75;;;3.52;76.84
39769;BME280;38939;47.824;14.642;2023-12-28T04:31:15;97324.03;;;3.46;76.59
39769;BME280;38939;47.824;14.642;2023-12-28T04:32:17;97328.38;;;3.46;76.52
39769;BME280;38939;47.824;14.642;2023-12-28T04:33:18;97328.88;;;3.49;75.88
39769;BME280;38939;47.824;14.642;2023-12-28T04:34:21;97340.16;;;3.48;75.91
39769;BME280;38939;47.824;14.642;2023-12-28T04:35:22;97338.41;;;3.49;76.32
39769;BME280;38939;47.824;14.642;2023-12-28T04:36:24;97329.72;;;3.50;75.72
39769;BME280;38939;47.824;14.642;2023-12-28T04:37:26;97330.38;;;3.52;75.97
39769;BME280;38939;47.824;14.642;2023-12-28T04:38:29;97337.81;;;3.55;76.13
39769;BME280;38939;47.824;14.642;2023-12-28T04:39:31;97347.19;;;3.56;76.08
39769;BME280;38939;47.824;14.642;2023-12-28T04:40:33;97338.34;;;3.58;76.25
39769;BME280;38939;47.824;14.642;2023-12-28T04:41:35;97329.13;;;3.56;75.60
39769;BME280;38939;47.824;14.642;2023-12-28T04:42:37;97336.03;;;3.55;75.66
39769;BME280;38939;47.824;14.642;2023-12-28T04:43:39;97340.38;;;3.55;75.82
39769;BME280;38939;47.824;14.642;2023-12-28T04:44:41;97339.44;;;3.56;75.81
39769;BME280;38939;47.824;14.642;2023-12-28T04:45:43;97336.19;;;3.54;75.12
39769;BME280;38939;47.824;14.642;2023-12-28T04:46:45;97338.63;;;3.55;75.19
39769;BME280;38939;47.824;14.642;2023-12-28T04:47:47;97333.03;;;3.60;75.66
39769;BME280;38939;47.824;14.642;2023-12-28T04:48:49;97333.03;;;3.60;76.04
39769;BME280;38939;47.824;14.642;2023-12-28T04:49:51;97336.69;;;3.57;75.95
39769;BME280;38939;47.824;14.642;2023-12-28T04:50:53;97337.66;;;3.56;75.60
39769;BME280;38939;47.824;14.642;2023-12-28T04:51:55;97348.94;;;3.55;75.07
39769;BME280;38939;47.824;14.642;2023-12-28T04:52:57;97344.88;;;3.53;75.34
39769;BME280;38939;47.824;14.642;2023-12-28T04:54:00;97351.50;;;3.55;75.41
39769;BME280;38939;47.824;14.642;2023-12-28T04:55:01;97350.56;;;3.56;75.00
39769;BME280;38939;47.824;14.642;2023-12-28T04:56:03;97349.75;;;3.56;75.17
39769;BME280;38939;47.824;14.642;2023-12-28T04:57:05;97355.19;;;3.53;75.37
39769;BME280;38939;47.824;14.642;2023-12-28T04:58:10;97348.25;;;3.53;74.91
39769;BME280;38939;47.824;14.642;2023-12-28T04:59:12;97355.88;;;3.55;75.68
39769;BME280;38939;47.824;14.642;2023-12-28T05:00:15;97359.25;;;3.55;75.57
39769;BME280;38939;47.824;14.642;2023-12-28T05:01:17;97357.78;;;3.53;75.47
39769;BME280;38939;47.824;14.642;2023-12-28T05:02:19;97351.69;;;3.54;75.71
39769;BME280;38939;47.824;14.642;2023-12-28T05:03:21;97348.13;;;3.55;75.60
39769;BME280;38939;47.824;14.642;2023-12-28T05:04:23;97344.88;;;3.53;75.68
39769;BME280;38939;47.824;14.642;2023-12-28T05:05:25;97345.69;;;3.53;75.37
39769;BME280;38939;47.824;14.642;2023-12-28T05:06:27;97343.94;;;3.54;75.20
39769;BME280;38939;47.824;14.642;2023-12-28T05:07:29;97351.81;;;3.52;75.36
39769;BME280;38939;47.824;14.642;2023-12-28T05:08:31;97353.28;;;3.55;75.38
39769;BME280;38939;47.824;14.642;2023-12-28T05:09:33;97350.25;;;3.59;75.90
39769;BME280;38939;47.824;14.642;2023-12-28T05:10:36;97358.84;;;3.60;75.44
39769;BME280;38939;47.824;14.642;2023-12-28T05:11:37;97352.69;;;3.61;75.48
39769;BME280;38939;47.824;14.642;2023-12-28T05:12:39;97354.03;;;3.65;75.68
39769;BME280;38939;47.824;14.642;2023-12-28T05:13:45;97363.53;;;3.65;75.63
39769;BME280;38939;47.824;14.642;2023-12-28T05:14:46;97364.22;;;3.67;75.45
39769;BME280;38939;47.824;14.642;2023-12-28T05:15:48;97359.19;;;3.65;75.48
39769;BME280;38939;47.824;14.642;2023-12-28T05:16:50;97370.09;;;3.59;75.85
39769;BME280;38939;47.824;14.642;2023-12-28T05:17:52;97365.38;;;3.54;75.96
39769;BME280;38939;47.824;14.642;2023-12-28T05:18:54;97363.91;;;3.52;75.47
39769;BME280;38939;47.824;14.642;2023-12-28T05:19:56;97365.53;;;3.53;75.84
39769;BME280;38939;47.824;14.642;2023-12-28T05:20:58;97367.31;;;3.52;76.00
39769;BME280;38939;47.824;14.642;2023-12-28T05:22:00;97366.91;;;3.47;76.69
39769;BME280;38939;47.824;14.642;2023-12-28T05:23:05;97363.38;;;3.48;76.46
39769;BME280;38939;47.824;14.642;2023-12-28T05:24:07;97368.09;;;3.53;76.40
39769;BME280;38939;47.824;14.642;2023-12-28T05:25:09;97373.41;;;3.51;76.21
39769;BME280;38939;47.824;14.642;2023-12-28T05:26:11;97374.91;;;3.54;76.44
39769;BME280;38939;47.824;14.642;2023-12-28T05:27:13;97369.34;;;3.49;75.94
39769;BME280;38939;47.824;14.642;2023-12-28T05:28:15;97375.09;;;3.43;75.78
39769;BME280;38939;47.824;14.642;2023-12-28T05:29:17;97364.41;;;3.37;75.41
39769;BME280;38939;47.824;14.642;2023-12-28T05:30:18;97362.78;;;3.36;75.66
39769;BME280;38939;47.824;14.642;2023-12-28T05:31:20;97376.47;;;3.37;76.28
39769;BME280;38939;47.824;14.642;2023-12-28T05:32:22;97365.66;;;3.33;75.54
39769;BME280;38939;47.824;14.642;2023-12-28T05:33:25;97375.41;;;3.39;75.68